sensor_id;sensor_type;location;lat;lon;timestamp;P1;durP1;ratioP1;P2;durP2;ratioP2
17866;SDS011;9059;49.934;8.650;2024-02-16T00:03:01;1.98;;;1.00;;
17866;SDS011;9059;49.934;8.650;2024-02-16T00:13:04;2.90;;;1.20;;
17866;SDS011;9059;49.934;8.650;2024-02-16T00:23:08;4.20;;;0.65;;
17866;SDS011;9059;49.934;8.650;2024-02-16T00:33:12;2.78;;;0.93;;
17866;SDS011;9059;49.934;8.650;2024-02-16T00:43:16;2.85;;;1.08;;
17866;SDS011;9059;49.934;8.650;2024-02-16T00:53:19;2.17;;;1.00;;
17866;SDS011;9059;49.934;8.650;2024-02-16T01:03:23;4.30;;;0.93;;
17866;SDS011;9059;49.934;8.650;2024-02-16T01:13:27;3.78;;;0.90;;
17866;SDS011;9059;49.934;8.650;2024-02-16T01:23:32;4.47;;;0.90;;
17866;SDS011;9059;49.934;8.650;2024-02-16T01:33:34;4.32;;;1.38;;
17866;SDS011;9059;49.934;8.650;2024-02-16T01:43:39;4.78;;;0.80;;
17866;SDS011;9059;49.934;8.650;2024-02-16T01:53:42;3.58;;;0.98;;
17866;SDS011;9059;49.934;8.650;2024-02-16T02:03:46;3.03;;;0.77;;
17866;SDS011;9059;49.934;8.650;2024-02-16T02:13:49;4.70;;;1.00;;
17866;SDS011;9059;49.934;8.650;2024-02-16T02:23:54;3.50;;;1.05;;
17866;SDS011;9059;49.934;8.650;2024-02-16T02:33:56;6.82;;;1.40;;
17866;SDS011;9059;49.934;8.650;2024-02-16T02:44:01;1.92;;;0.98;;
17866;SDS011;9059;49.934;8.650;2024-02-16T02:54:04;2.65;;;0.80;;
17866;SDS011;9059;49.934;8.650;2024-02-16T03:04:08;2.00;;;0.80;;
17866;SDS011;9059;49.934;8.650;2024-02-16T03:14:11;5.00;;;1.05;;
17866;SDS011;9059;49.934;8.650;2024-02-16T03:24:16;3.88;;;0.90;;
17866;SDS011;9059;49.934;8.650;2024-02-16T03:34:20;1.98;;;1.00;;
17866;SDS011;9059;49.934;8.650;2024-02-16T03:44:24;2.88;;;0.90;;
17866;SDS011;9059;49.934;8.650;2024-02-16T03:54:27;5.38;;;1.20;;
17866;SDS011;9059;49.934;8.650;2024-02-16T04:04:32;4.10;;;1.38;;
17866;SDS011;9059;49.934;8.650;2024-02-16T04:14:35;4.30;;;1.27;;
17866;SDS011;9059;49.934;8.650;2024-02-16T04:24:39;5.73;;;2.00;;
17866;SDS011;9059;49.934;8.650;2024-02-16T04:34:42;4.68;;;1.27;;
17866;SDS011;9059;49.934;8.650;2024-02-16T04:44:47;4.10;;;1.10;;
17866;SDS011;9059;49.934;8.650;2024-02-16T04:54:50;7.78;;;1.30;;
17866;SDS011;9059;49.934;8.650;2024-02-16T05:04:54;6.60;;;1.55;;
17866;SDS011;9059;49.934;8.650;2024-02-16T05:15:00;3.15;;;1.05;;
17866;SDS011;9059;49.934;8.650;2024-02-16T05:25:05;6.20;;;0.90;;
17866;SDS011;9059;49.934;8.650;2024-02-16T05:35:09;6.88;;;1.40;;
17866;SDS011;9059;49.934;8.650;2024-02-16T05:45:16;4.97;;;0.88;;
17866;SDS011;9059;49.934;8.650;2024-02-16T05:55:19;2.30;;;1.30;;
17866;SDS011;9059;49.934;8.650;2024-02-16T06:05:23;5.10;;;1.05;;
17866;SDS011;9059;49.934;8.650;2024-02-16T06:15:26;3.90;;;1.13;;
17866;SDS011;9059;49.934;8.650;2024-02-16T06:25:31;8.02;;;3.08;;
17866;SDS011;9059;49.934;8.650;2024-02-16T06:35:34;2.72;;;1.15;;
17866;SDS011;9059;49.934;8.650;2024-02-16T06:45:38;6.63;;;1.90;;
17866;SDS011;9059;49.934;8.650;2024-02-16T06:55:41;5.80;;;1.27;;
17866;SDS011;9059;49.934;8.650;2024-02-16T07:05:45;3.58;;;1.48;;
17866;SDS011;9059;49.934;8.650;2024-02-16T07:15:48;5.05;;;1.50;;
17866;SDS011;9059;49.934;8.650;2024-02-16T07:25:53;4.22;;;1.52;;
17866;SDS011;9059;49.934;8.650;2024-02-16T07:35:58;9.77;;;1.83;;
17866;SDS011;9059;49.934;8.650;2024-02-16T07:46:02;10.00;;;1.70;;
17866;SDS011;9059;49.934;8.650;2024-02-16T07:56:06;7.07;;;1.90;;
17866;SDS011;9059;49.934;8.650;2024-02-16T08:06:10;6.07;;;1.80;;
17866;SDS011;9059;49.934;8.650;2024-02-16T08:16:13;3.88;;;2.17;;
17866;SDS011;9059;49.934;8.650;2024-02-16T08:26:18;4.10;;;2.33;;
17866;SDS011;9059;49.934;8.650;2024-02-16T08:36:21;4.15;;;2.00;;
17866;SDS011;9059;49.934;8.650;2024-02-16T08:46:30;5.15;;;2.20;;
17866;SDS011;9059;49.934;8.650;2024-02-16T08:56:33;4.53;;;2.30;;
17866;SDS011;9059;49.934;8.650;2024-02-16T09:06:38;4.60;;;2.03;;
17866;SDS011;9059;49.934;8.650;2024-02-16T09:16:41;9.38;;;2.25;;
17866;SDS011;9059;49.934;8.650;2024-02-16T09:26:45;2.95;;;1.73;;
17866;SDS011;9059;49.934;8.650;2024-02-16T09:36:48;8.23;;;2.10;;
17866;SDS011;9059;49.934;8.650;2024-02-16T09:46:53;5.60;;;1.90;;
17866;SDS011;9059;49.934;8.650;2024-02-16T09:56:56;6.40;;;2.03;;
17866;SDS011;9059;49.934;8.650;2024-02-16T10:07:00;8.07;;;2.17;;
17866;SDS011;9059;49.934;8.650;2024-02-16T10:17:05;4.47;;;2.13;;
17866;SDS011;9059;49.934;8.650;2024-02-16T10:27:15;4.82;;;2.05;;
17866;SDS011;9059;49.934;8.650;2024-02-16T10:37:19;6.15;;;2.33;;
17866;SDS011;9059;49.934;8.650;2024-02-16T10:47:23;5.47;;;2.30;;
17866;SDS011;9059;49.934;8.650;2024-02-16T10:57:26;4.78;;;2.00;;
17866;SDS011;9059;49.934;8.650;2024-02-16T11:07:32;6.93;;;2.20;;
17866;SDS011;9059;49.934;8.650;2024-02-16T11:17:35;4.47;;;1.98;;
17866;SDS011;9059;49.934;8.650;2024-02-16T11:27:39;8.48;;;2.42;;
17866;SDS011;9059;49.934;8.650;2024-02-16T11:37:42;6.10;;;1.70;;
17866;SDS011;9059;49.934;8.650;2024-02-16T11:47:48;4.60;;;1.60;;
17866;SDS011;9059;49.934;8.650;2024-02-16T11:57:51;3.55;;;1.40;;
17866;SDS011;9059;49.934;8.650;2024-02-16T12:07:58;3.17;;;1.30;;
17866;SDS011;9059;49.934;8.650;2024-02-16T12:18:02;4.40;;;1.48;;
17866;SDS011;9059;49.934;8.650;2024-02-16T12:28:06;2.20;;;1.40;;
17866;SDS011;9059;49.934;8.650;2024-02-16T12:38:10;7.65;;;2.47;;
17866;SDS011;9059;49.934;8.650;2024-02-16T12:48:15;5.65;;;1.33;;
17866;SDS011;9059;49.934;8.650;2024-02-16T12:58:19;1.85;;;1.08;;
17866;SDS011;9059;49.934;8.650;2024-02-16T13:08:23;6.88;;;1.50;;
17866;SDS011;9059;49.934;8.650;2024-02-16T13:18:26;8.05;;;1.60;;
17866;SDS011;9059;49.934;8.650;2024-02-16T13:28:30;4.43;;;1.30;;
17866;SDS011;9059;49.934;8.650;2024-02-16T13:38:34;4.20;;;1.48;;
17866;SDS011;9059;49.934;8.650;2024-02-16T13:48:39;6.93;;;1.30;;
17866;SDS011;9059;49.934;8.650;2024-02-16T13:58:43;3.17;;;1.17;;
17866;SDS011;9059;49.934;8.650;2024-02-16T14:08:50;1.90;;;0.90;;
17866;SDS011;9059;49.934;8.650;2024-02-16T14:18:54;5.40;;;1.50;;
17866;SDS011;9059;49.934;8.650;2024-02-16T14:28:58;3.72;;;1.10;;
17866;SDS011;9059;49.934;8.650;2024-02-16T14:39:02;3.03;;;1.23;;
17866;SDS011;9059;49.934;8.650;2024-02-16T14:49:07;5.00;;;1.00;;
17866;SDS011;9059;49.934;8.650;2024-02-16T14:59:10;5.03;;;1.20;;
17866;SDS011;9059;49.934;8.650;2024-02-16T15:09:16;2.53;;;1.05;;
17866;SDS011;9059;49.934;8.650;2024-02-16T15:19:19;4.10;;;1.02;;
17866;SDS011;9059;49.934;8.650;2024-02-16T15:29:23;4.97;;;1.75;;
17866;SDS011;9059;49.934;8.650;2024-02-16T15:39:26;2.40;;;1.25;;
17866;SDS011;9059;49.934;8.650;2024-02-16T15:49:30;3.17;;;1.20;;
17866;SDS011;9059;49.934;8.650;2024-02-16T15:59:33;4.25;;;1.33;;
17866;SDS011;9059;49.934;8.650;2024-02-16T16:09:38;3.72;;;1.05;;
17866;SDS011;9059;49.934;8.650;2024-02-16T16:19:41;6.03;;;1.08;;
17866;SDS011;9059;49.934;8.650;2024-02-16T16:29:46;8.77;;;1.20;;
17866;SDS011;9059;49.934;8.650;2024-02-16T16:39:49;2.58;;;1.23;;
17866;SDS011;9059;49.934;8.650;2024-02-16T16:49:53;13.27;;;1.60;;
17866;SDS011;9059;49.934;8.650;2024-02-16T16:59:56;2.20;;;1.20;;
17866;SDS011;9059;49.934;8.650;2024-02-16T17:10:03;4.70;;;1.30;;
17866;SDS011;9059;49.934;8.650;2024-02-16T17:20:06;5.80;;;1.23;;
17866;SDS011;9059;49.934;8.650;2024-02-16T17:30:12;4.65;;;1.38;;
17866;SDS011;9059;49.934;8.650;2024-02-16T17:40:17;4.90;;;1.60;;
17866;SDS011;9059;49.934;8.650;2024-02-16T17:50:21;2.90;;;1.42;;
17866;SDS011;9059;49.934;8.650;2024-02-16T18:00:24;3.97;;;1.88;;
17866;SDS011;9059;49.934;8.650;2024-02-16T18:10:29;4.20;;;1.60;;
17866;SDS011;9059;49.934;8.650;2024-02-16T18:20:32;5.20;;;1.80;;
17866;SDS011;9059;49.934;8.650;2024-02-16T18:30:36;6.28;;;2.30;;
17866;SDS011;9059;49.934;8.650;2024-02-16T18:40:41;9.07;;;1.98;;
17866;SDS011;9059;49.934;8.650;2024-02-16T18:50:45;5.20;;;2.40;;
17866;SDS011;9059;49.934;8.650;2024-02-16T19:00:48;10.32;;;2.65;;
17866;SDS011;9059;49.934;8.650;2024-02-16T19:10:53;6.55;;;2.30;;
17866;SDS011;9059;49.934;8.650;2024-02-16T19:20:58;6.13;;;2.25;;
17866;SDS011;9059;49.934;8.650;2024-02-16T19:31:02;19.90;;;3.17;;
17866;SDS011;9059;49.934;8.650;2024-02-16T19:41:05;3.38;;;2.20;;
17866;SDS011;9059;49.934;8.650;2024-02-16T19:51:09;6.88;;;2.28;;
17866;SDS011;9059;49.934;8.650;2024-02-16T20:01:12;5.53;;;2.85;;
17866;SDS011;9059;49.934;8.650;2024-02-16T20:11:16;5.53;;;2.80;;
17866;SDS011;9059;49.934;8.650;2024-02-16T20:21:19;6.38;;;2.75;;
17866;SDS011;9059;49.934;8.650;2024-02-16T20:31:25;6.80;;;3.10;;
17866;SDS011;9059;49.934;8.650;2024-02-16T20:41:28;5.65;;;2.42;;
17866;SDS011;9059;49.934;8.650;2024-02-16T20:51:32;5.68;;;3.10;;
17866;SDS011;9059;49.934;8.650;2024-02-16T21:01:36;11.75;;;2.58;;
17866;SDS011;9059;49.934;8.650;2024-02-16T21:11:42;5.47;;;3.10;;
17866;SDS011;9059;49.934;8.650;2024-02-16T21:21:44;4.75;;;2.60;;
17866;SDS011;9059;49.934;8.650;2024-02-16T21:31:49;4.95;;;2.47;;
17866;SDS011;9059;49.934;8.650;2024-02-16T21:41:51;5.72;;;2.67;;
17866;SDS011;9059;49.934;8.650;2024-02-16T21:51:56;6.80;;;3.13;;
17866;SDS011;9059;49.934;8.650;2024-02-16T22:01:59;6.43;;;2.10;;
17866;SDS011;9059;49.934;8.650;2024-02-16T22:12:03;4.53;;;2.30;;
17866;SDS011;9059;49.934;8.650;2024-02-16T22:22:06;5.78;;;2.88;;
17866;SDS011;9059;49.934;8.650;2024-02-16T22:32:11;5.13;;;2.25;;
17866;SDS011;9059;49.934;8.650;2024-02-16T22:42:18;6.65;;;2.60;;
17866;SDS011;9059;49.934;8.650;2024-02-16T22:52:23;4.05;;;2.15;;
17866;SDS011;9059;49.934;8.650;2024-02-16T23:02:25;3.40;;;1.95;;
17866;SDS011;9059;49.934;8.650;2024-02-16T23:12:30;6.05;;;2.35;;
17866;SDS011;9059;49.934;8.650;2024-02-16T23:22:33;5.75;;;2.63;;
17866;SDS011;9059;49.934;8.650;2024-02-16T23:32:39;6.95;;;3.25;;
17866;SDS011;9059;49.934;8.650;2024-02-16T23:42:41;7.40;;;3.20;;
17866;SDS011;9059;49.934;8.650;2024-02-16T23:52:47;8.93;;;3.42;;
